Columbia — A8KP7 — position and weather

sailwx.info

Track history (hours):
 
Tides and Currents Weather Stations Pressure Air Temp Water Temp Dewpoint Dewpoint Depression Visibility Wind Speed Wind Dir Waves Ship Positions

Columbia

Last reported at 2018-May-15 09:04 UTC. Time now 2018-Jun-23 15:28 UTC.
Position N 49°21' W 004°38'.
Warning: this ship's position is 39 days out of date.

Length 190 m; draft 11.1 m.

Type: Cargo ship. MMSI: 636091202.

Date/timePositionNaut miles runAvg speedWind from/ knotsBaromVisibWave heightAir tempDewpointWater temp
2018-May-15 09:04N 49°21' W 004°38'112.2
2018-May-15 09:00N 49°22' W 004°37'2611.0
2018-May-15 06:41N 49°34' W 004°03'12 9.4
2018-May-15 05:23N 49°40' W 003°47'4 9.3
2018-May-15 04:57N 49°42' W 003°41'4 9.4
2018-May-15 04:30N 49°44' W 003°35'6 9.7
2018-May-15 03:56N 49°47' W 003°28'410.3
2018-May-15 03:30N 49°49' W 003°22'611.1
2018-May-15 03:00N 49°52' W 003°15'611.9
2018-May-15 02:30N 49°55' W 003°06'612.8
2018-May-15 02:00N 49°58' W 002°58'713.3
2018-May-15 01:30N 50°00' W 002°48'713.9
2018-May-15 01:00N 50°02' W 002°38'714.2
2018-May-15 00:30N 50°04' W 002°27'714.2
2018-May-15 00:00N 50°06' W 002°16'713.6
2018-May-14 23:30N 50°08' W 002°06'612.8
2018-May-14 23:00N 50°09' W 001°56'611.8
2018-May-14 22:30N 50°11' W 001°47'510.7
2018-May-14 22:00N 50°12' W 001°39'5 9.9
2018-May-14 21:30N 50°13' W 001°32'5 9.0
2018-May-14 21:00N 50°15' W 001°25'4 8.3
2018-May-14 20:30N 50°16' W 001°19'4 8.0
2018-May-14 20:00N 50°17' W 001°13'4 7.5
2018-May-14 19:30N 50°18' W 001°07'4 7.5
2018-May-14 19:00N 50°19' W 001°02'4 8.0
2018-May-14 18:30N 50°20' W 000°56'5 9.2
2018-May-14 18:00N 50°22' W 000°49'5 9.8
2018-May-14 17:30N 50°23' W 000°41'510.3
2018-May-14 17:00N 50°25' W 000°34'611.3
2018-May-14 16:30N 50°26' W 000°25'611.9
2018-May-14 16:00N 50°28' W 000°16'612.4
2018-May-14 15:30N 50°29' W 000°07'612.7
2018-May-14 15:00N 50°31' E 000°03'612.9
2018-May-14 14:30N 50°33' E 000°13'612.8
2018-May-14 14:00N 50°35' E 000°22'612.5
2018-May-14 13:30N 50°36' E 000°32'612.2
2018-May-14 13:00N 50°39' E 000°40'611.9
2018-May-14 12:30N 50°43' E 000°48'511.0
2018-May-14 12:00N 50°45' E 000°55'510.3
2018-May-14 11:30N 50°48' E 001°02'5 9.7
2018-May-14 11:00N 50°51' E 001°09'13 9.2
2018-May-14 09:35N 50°60' E 001°24'110.1
2018-May-14 09:30N 51°00' E 001°25'510.9
2018-May-14 09:00N 51°04' E 001°31'611.7
2018-May-14 08:30N 51°08' E 001°38'612.6
2018-May-14 08:00N 51°13' E 001°45'713.6
2018-May-14 07:30N 51°19' E 001°50'713.4
2018-May-14 07:00N 51°25' E 001°55'713.3
2018-May-14 06:30N 51°30' E 002°01'612.9
2018-May-14 06:00N 51°35' E 002°08'612.6
2018-May-14 05:30N 51°39' E 002°16'612.1
2018-May-14 04:59N 51°44' E 002°23'611.6
2018-May-14 04:30N 51°48' E 002°29'1110.3
2018-May-14 03:25N 51°58' E 002°36'610.1
2018-May-14 02:50N 52°04' E 002°38'3 9.8
2018-May-14 02:30N 52°07' E 002°38'10 9.4
2018-May-14 01:24N 52°17' E 002°42'11 9.6
2018-May-14 00:13N 52°27' E 002°49'210.1
2018-May-14 00:00N 52°29' E 002°52'510.2
2018-May-13 23:30N 52°33' E 002°56'710.9
2018-May-13 22:51N 52°39' E 003°02'811.5
2018-May-13 22:07N 52°47' E 003°08'111.7
2018-May-13 22:00N 52°48' E 003°09'611.9
2018-May-13 21:29N 52°54' E 003°14'612.0
2018-May-13 21:00N 52°59' E 003°18'25311.1
2018-May-12 22:10N 56°36' E 007°03'211.5
2018-May-12 21:58N 56°38' E 007°06'611.6
2018-May-12 21:30N 56°42' E 007°11'611.4
2018-May-12 20:59N 56°47' E 007°17'611.3
2018-May-12 20:29N 56°52' E 007°23'511.3
2018-May-12 20:00N 56°56' E 007°30'5411.6
2018-May-12 15:21N 57°31' E 008°45'411.2
2018-May-12 15:00N 57°33' E 008°51'611.5
2018-May-12 14:30N 57°35' E 009°01'611.6
2018-May-12 14:00N 57°37' E 009°12'611.3
2018-May-12 13:30N 57°39' E 009°21'611.2
2018-May-12 13:00N 57°41' E 009°31'611.5
2018-May-12 12:30N 57°43' E 009°41'611.5
2018-May-12 12:00N 57°45' E 009°51'611.2
2018-May-12 11:30N 57°46' E 010°02'510.7
2018-May-12 11:00N 57°47' E 010°12'510.7
2018-May-12 10:30N 57°48' E 010°21'510.4
2018-May-12 10:00N 57°48' E 010°31'5 9.7
2018-May-12 09:30N 57°48' E 010°40'4 7.5
2018-May-12 09:00N 57°48' E 010°47'3 6.8
2018-May-12 08:30N 57°44' E 010°46'3 6.4
2018-May-12 08:00N 57°42' E 010°42'0 1.0
2018-May-12 07:30N 57°42' E 010°41'0 0.1
2018-May-12 07:00N 57°42' E 010°41'0 0.0
2018-May-12 06:30N 57°42' E 010°41'0 0.0
2018-May-12 06:00N 57°42' E 010°41'0 0.1
2018-May-12 05:30N 57°42' E 010°41'0 0.3
2018-May-12 05:00N 57°42' E 010°41'0 0.0
2018-May-12 04:30N 57°42' E 010°41'0 0.1
2018-May-12 04:00N 57°42' E 010°41'0 0.0
2018-May-12 03:30N 57°42' E 010°40'0 0.0
2018-May-12 03:00N 57°42' E 010°40'0 0.1
2018-May-12 02:30N 57°42' E 010°40'0 0.1
2018-May-12 02:00N 57°42' E 010°40'0 0.1
2018-May-12 01:30N 57°42' E 010°40'0 0.1
2018-May-12 01:00N 57°42' E 010°40'0 0.1
2018-May-12 00:30N 57°42' E 010°41'0 0.1
2018-May-12 00:00N 57°42' E 010°41'0 0.0
2018-May-11 23:30N 57°42' E 010°41'0 0.0
2018-May-11 23:00N 57°42' E 010°41'0 0.0
2018-May-11 22:30N 57°42' E 010°41'0 0.0
2018-May-11 22:00N 57°42' E 010°41'0 0.0
2018-May-11 21:30N 57°42' E 010°41'0 0.0
2018-May-11 21:00N 57°42' E 010°41'0 0.0
2018-May-11 20:30N 57°42' E 010°41'0 0.0
2018-May-11 20:00N 57°42' E 010°41'0 0.1
2018-May-11 19:30N 57°42' E 010°41'0 0.4
2018-May-11 19:00N 57°42' E 010°41'1 2.5
2018-May-11 18:30N 57°41' E 010°42'2 4.3
2018-May-11 18:00N 57°40' E 010°46'4 7.1
2018-May-11 17:30N 57°40' E 010°53'4 7.8
2018-May-11 17:00N 57°39' E 011°00'510.6
2018-May-11 16:31N 57°36' E 011°09'510.9
2018-May-11 16:00N 57°33' E 011°16'510.7
2018-May-11 15:31N 57°29' E 011°24'510.1
2018-May-11 15:00N 57°25' E 011°29'510.6
2018-May-11 14:30N 57°20' E 011°32'510.7
2018-May-11 14:00N 57°15' E 011°35'510.8
2018-May-11 13:30N 57°10' E 011°39'510.7
2018-May-11 13:00N 57°05' E 011°42'510.7
2018-May-11 12:30N 56°60' E 011°45'611.1
2018-May-11 12:00N 56°54' E 011°48'611.3
2018-May-11 11:30N 56°49' E 011°51'510.4
2018-May-11 11:00N 56°44' E 011°52'611.3
2018-May-11 10:30N 56°39' E 011°47'611.1
2018-May-11 10:00N 56°34' E 011°42'510.8
2018-May-11 09:30N 56°30' E 011°37'1211.0
2018-May-11 08:23N 56°19' E 011°26'511.1
2018-May-11 07:53N 56°14' E 011°21'510.8
2018-May-11 07:27N 56°10' E 011°16'45 9.1
2018-May-11 02:32N 55°27' E 010°57'0 9.6
2018-May-11 02:30N 55°27' E 010°57'9 9.6
2018-May-11 01:32N 55°18' E 011°03'0 9.5
2018-May-11 01:30N 55°18' E 011°03'5 9.3
2018-May-11 01:00N 55°13' E 011°06'5 9.7
2018-May-11 00:30N 55°10' E 011°01'510.1
2018-May-11 00:00N 55°05' E 010°59'510.1
2018-May-10 23:30N 54°60' E 010°59'5 9.8
2018-May-10 23:01N 54°56' E 010°53'510.2
2018-May-10 22:31N 54°51' E 010°50'510.0
2018-May-10 22:00N 54°46' E 010°48'4 8.6
2018-May-10 21:30N 54°42' E 010°46'5 9.1
2018-May-10 21:00N 54°39' E 010°52'510.8
2018-May-10 20:30N 54°36' E 010°60'611.5
2018-May-10 20:00N 54°36' E 011°10'611.7
2018-May-10 19:30N 54°34' E 011°19'611.7
2018-May-10 19:00N 54°31' E 011°28'611.9
2018-May-10 18:30N 54°29' E 011°38'611.5
2018-May-10 18:00N 54°26' E 011°46'510.9
2018-May-10 17:30N 54°26' E 011°56'4 8.4
2018-May-10 17:01N 54°26' E 012°03'5 9.2
2018-May-10 16:30N 54°27' E 012°11'5510.8
2018-May-10 11:22N 54°57' E 013°31'811.1
2018-May-10 10:40N 54°60' E 013°44'411.1
2018-May-10 10:20N 55°01' E 013°50'511.1
2018-May-10 09:53N 55°03' E 013°58'411.1
2018-May-10 09:31N 55°04' E 014°05'611.1
2018-May-10 09:01N 55°08' E 014°11'611.3
2018-May-10 08:30N 55°13' E 014°17'611.4
2018-May-10 08:00N 55°17' E 014°23'611.5
2018-May-10 07:29N 55°22' E 014°29'611.4
2018-May-10 06:59N 55°26' E 014°36'511.4
2018-May-10 06:31N 55°29' E 014°45'611.3
2018-May-10 06:01N 55°32' E 014°53'611.4
2018-May-10 05:31N 55°34' E 015°02'611.2
2018-May-10 05:00N 55°37' E 015°11'611.2
2018-May-10 04:30N 55°38' E 015°21'611.3
2018-May-10 04:00N 55°40' E 015°31'611.3
2018-May-10 03:31N 55°41' E 015°40'611.3
2018-May-10 03:00N 55°42' E 015°50'611.4
2018-May-10 02:30N 55°44' E 015°60'611.4
2018-May-10 02:00N 55°45' E 016°10'611.3
2018-May-10 01:30N 55°47' E 016°19'611.3
2018-May-10 01:00N 55°48' E 016°29'611.4
2018-May-10 00:30N 55°49' E 016°39'611.3
2018-May-10 00:01N 55°51' E 016°49'611.2
2018-May-09 23:30N 55°52' E 016°58'611.4
2018-May-09 23:00N 55°54' E 017°08'611.2
2018-May-09 22:31N 55°55' E 017°18'611.2
2018-May-09 22:00N 55°56' E 017°27'611.3
2018-May-09 21:30N 55°58' E 017°37'611.2
2018-May-09 21:00N 56°00' E 017°46'611.4
2018-May-09 20:30N 56°03' E 017°55'611.3
2018-May-09 20:00N 56°07' E 018°03'1011.3
2018-May-09 19:09N 56°12' E 018°17'1311.3
2018-May-09 17:59N 56°19' E 018°37'7611.4
2018-May-09 11:17N 57°25' E 019°48'311.6
2018-May-09 11:00N 57°28' E 019°51'611.4
2018-May-09 10:26N 57°33' E 019°56'611.3
2018-May-09 09:53N 57°39' E 020°00'511.3
2018-May-09 09:28N 57°44' E 020°04'1011.0
2018-May-09 08:33N 57°53' E 020°11'011.2
2018-May-09 08:30N 57°53' E 020°12'6211.2
2018-May-09 02:55N 58°47' E 021°11'510.9
2018-May-09 02:27N 58°52' E 021°16'511.0
2018-May-09 01:59N 58°56' E 021°21'1211.0
2018-May-09 00:53N 59°06' E 021°34'411.0
2018-May-09 00:30N 59°10' E 021°39'611.4
2018-May-08 23:59N 59°13' E 021°47'511.3
2018-May-08 23:31N 59°17' E 021°56'811.2
2018-May-08 22:46N 59°22' E 022°09'311.3
2018-May-08 22:30N 59°24' E 022°13'611.3
2018-May-08 22:00N 59°27' E 022°22'611.2
2018-May-08 21:30N 59°30' E 022°31'611.2
2018-May-08 21:00N 59°32' E 022°41'611.3
2018-May-08 20:28N 59°34' E 022°53'511.4
2018-May-08 20:00N 59°35' E 023°03'611.3
2018-May-08 19:30N 59°37' E 023°14'611.4
2018-May-08 19:00N 59°38' E 023°25'611.4
2018-May-08 18:30N 59°40' E 023°36'611.2
2018-May-08 18:01N 59°42' E 023°46'611.3
2018-May-08 17:30N 59°43' E 023°57'611.2
2018-May-08 17:00N 59°45' E 024°07'611.2
2018-May-08 16:30N 59°47' E 024°18'511.1
2018-May-08 16:00N 59°48' E 024°29'511.0
2018-May-08 15:30N 59°48' E 024°40'611.0
2018-May-08 15:00N 59°49' E 024°50'510.9
2018-May-08 14:31N 59°51' E 025°01'510.9
2018-May-08 14:00N 59°52' E 025°12'510.8
2018-May-08 13:30N 59°52' E 025°22'611.0
2018-May-08 13:00N 59°53' E 025°33'610.9
2018-May-08 12:29N 59°54' E 025°44'510.8
2018-May-08 12:00N 59°54' E 025°55'510.9
2018-May-08 11:30N 59°54' E 026°05'710.9
2018-May-08 10:54N 59°53' E 026°18'613.4
2018-May-08 10:25N 59°50' E 026°30'511.0
2018-May-08 09:56N 59°48' E 026°40'511.4
2018-May-08 09:30N 59°45' E 026°48'610.9
2018-May-08 08:55N 59°42' E 026°59'4 8.5
2018-May-08 08:24N 59°40' E 027°06'411.1
2018-May-08 08:00N 59°37' E 027°14'611.0
2018-May-08 07:30N 59°34' E 027°23'510.9
2018-May-08 07:00N 59°32' E 027°33'510.2
2018-May-08 06:30N 59°30' E 027°41'3 6.6
2018-May-08 06:00N 59°26' E 027°44'1 2.3
2018-May-08 05:27N 59°25' E 027°44'0 0.0
2018-May-08 04:58N 59°25' E 027°44'0 0.0
2018-May-08 04:29N 59°25' E 027°44'0 0.0
2018-May-08 03:55N 59°25' E 027°44'0 0.0
2018-May-08 03:21N 59°25' E 027°44'0 0.0
2018-May-08 02:51N 59°25' E 027°44'0 0.0
2018-May-08 02:22N 59°25' E 027°44'0 0.0
2018-May-08 01:58N 59°25' E 027°44'0 0.0
2018-May-08 01:22N 59°25' E 027°44'0 0.0
2018-May-08 00:07N 59°25' E 027°44'0 0.0
2018-May-07 23:51N 59°25' E 027°44'0 0.0
2018-May-07 23:28N 59°25' E 027°44'0 0.0
2018-May-07 22:48N 59°25' E 027°44'0 0.0
2018-May-07 22:28N 59°25' E 027°44'0 0.0
2018-May-07 21:13N 59°25' E 027°44'0 0.0
2018-May-07 20:58N 59°25' E 027°44'0 0.0
2018-May-07 20:28N 59°25' E 027°44'0 0.0
2018-May-07 19:58N 59°25' E 027°44'0 0.0
2018-May-07 19:29N 59°25' E 027°44'0 0.0
2018-May-07 18:58N 59°25' E 027°44'0 0.0
2018-May-07 18:28N 59°25' E 027°44'0 0.0
2018-May-07 17:57N 59°25' E 027°44'0 0.0
2018-May-07 17:27N 59°25' E 027°44'0 0.0
2018-May-07 16:02N 59°25' E 027°44'0 0.0
2018-May-07 14:49N 59°25' E 027°44'0 0.0
2018-May-07 14:22N 59°25' E 027°44'0 0.0
2018-May-07 14:00N 59°25' E 027°44'0 0.0
2018-May-07 13:29N 59°25' E 027°44'0 0.0
2018-May-07 11:52N 59°25' E 027°44'0 0.0
2018-May-07 11:11N 59°25' E 027°44'0 0.0
2018-May-07 10:56N 59°25' E 027°44'0 0.0
2018-May-07 10:26N 59°25' E 027°44'0 0.0
2018-May-07 09:34N 59°25' E 027°44'0 0.0
2018-May-07 09:23N 59°25' E 027°44'0 0.0
2018-May-07 08:22N 59°25' E 027°44'0 0.0
2018-May-07 07:58N 59°25' E 027°44'0 0.0
2018-May-07 07:28N 59°25' E 027°44'0 0.0
2018-May-07 06:59N 59°25' E 027°44'0 0.0
2018-May-07 06:16N 59°25' E 027°44'0 0.0
2018-May-07 05:51N 59°25' E 027°44'0 0.0
2018-May-07 05:31N 59°25' E 027°44'0 0.0
2018-May-06 23:21N 59°25' E 027°44'0 0.0
2018-May-06 22:58N 59°25' E 027°44'0 0.0
2018-May-06 22:22N 59°25' E 027°44'0 0.0
2018-May-06 21:52N 59°25' E 027°44'0 0.0
2018-May-06 21:20N 59°25' E 027°44'0 0.0
2018-May-06 20:49N 59°25' E 027°44'0 0.0
2018-May-06 20:22N 59°25' E 027°44'0 0.0
2018-May-06 19:43N 59°25' E 027°44'0 0.0
2018-May-06 19:29N 59°25' E 027°44'0 0.0
2018-May-06 18:58N 59°25' E 027°44'0 0.0
2018-May-06 18:22N 59°25' E 027°44'0 0.0
2018-May-06 17:33N 59°25' E 027°44'0 0.0
2018-May-06 15:36N 59°25' E 027°44'0 0.0
2018-May-06 15:18N 59°25' E 027°44'0 0.0
2018-May-06 14:14N 59°25' E 027°44'0 0.0
2018-May-06 13:50N 59°25' E 027°44'0 0.0
2018-May-06 12:52N 59°25' E 027°44'0 0.0
2018-May-06 12:16N 59°25' E 027°44'0 0.0
2018-May-06 11:56N 59°25' E 027°44'0 0.0
2018-May-06 11:29N 59°25' E 027°44'0 0.0
2018-May-06 10:52N 59°25' E 027°44'0 0.0
2018-May-06 10:27N 59°25' E 027°44'0 0.0
2018-May-06 09:58N 59°25' E 027°44'0 0.0
2018-May-06 09:19N 59°25' E 027°44'0 0.0
2018-May-06 09:00N 59°25' E 027°44'0 0.0
2018-May-06 08:24N 59°25' E 027°44'0 0.0
2018-May-06 07:57N 59°25' E 027°44'0 0.0
2018-May-06 07:22N 59°25' E 027°44'0 0.0
2018-May-06 06:59N 59°25' E 027°44'0 0.0
2018-May-06 06:29N 59°25' E 027°44'0 0.0
2018-May-06 05:52N 59°25' E 027°44'0 0.0
2018-May-06 05:30N 59°25' E 027°44'0 0.0
2018-May-06 05:00N 59°25' E 027°44'0 0.0
2018-May-06 04:28N 59°25' E 027°44'0 0.0
2018-May-06 03:54N 59°25' E 027°44'0 0.0
2018-May-06 03:28N 59°25' E 027°44'0 0.0
2018-May-06 02:58N 59°25' E 027°44'0 0.0
2018-May-06 02:28N 59°25' E 027°44'0 0.0
2018-May-06 01:40N 59°25' E 027°44'0 0.0
2018-May-06 01:25N 59°25' E 027°44'0 0.0
2018-May-06 00:58N 59°25' E 027°44'0 0.0
2018-May-06 00:28N 59°25' E 027°44'0 0.0
2018-May-05 23:58N 59°25' E 027°44'0 0.0
2018-May-05 23:28N 59°25' E 027°44'0 0.0
2018-May-05 22:58N 59°25' E 027°44'0 0.0
2018-May-05 22:28N 59°25' E 027°44'0 0.0
2018-May-05 21:58N 59°25' E 027°44'0 0.0
2018-May-05 21:08N 59°25' E 027°44'0 0.0
2018-May-05 20:46N 59°25' E 027°44'0 0.0
2018-May-05 20:29N 59°25' E 027°44'0 0.0
2018-May-05 19:56N 59°25' E 027°44'0 0.0
2018-May-05 18:28N 59°25' E 027°44'0 0.0
2018-May-05 17:58N 59°25' E 027°44'0 0.0
2018-May-05 16:40N 59°25' E 027°44'0 0.0
2018-May-05 14:21N 59°25' E 027°44'0 0.0
2018-May-05 12:48N 59°25' E 027°44'0 0.0
2018-May-05 12:22N 59°25' E 027°44'0 0.0
2018-May-05 11:57N 59°25' E 027°44'  
Track history (hours):
 
Tides and Currents Weather Stations Pressure Air Temp Water Temp Dewpoint Dewpoint Depression Visibility Wind Speed Wind Dir Waves Ship Positions

Columbia

Last reported at 2018-May-15 09:04 UTC. Time now 2018-Jun-23 15:28 UTC.
Position N 49°21' W 004°38'.
Warning: this ship's position is 39 days out of date.

Length 190 m; draft 11.1 m.

Type: Cargo ship. MMSI: 636091202.

Date/timePositionNaut miles runAvg speedWind from/ knotsBaromVisibWave heightAir tempDewpointWater temp
2018-May-15 09:04N 49°21' W 004°38'112.2
2018-May-15 09:00N 49°22' W 004°37'2611.0
2018-May-15 06:41N 49°34' W 004°03'12 9.4
2018-May-15 05:23N 49°40' W 003°47'4 9.3
2018-May-15 04:57N 49°42' W 003°41'4 9.4
2018-May-15 04:30N 49°44' W 003°35'6 9.7
2018-May-15 03:56N 49°47' W 003°28'410.3
2018-May-15 03:30N 49°49' W 003°22'611.1
2018-May-15 03:00N 49°52' W 003°15'611.9
2018-May-15 02:30N 49°55' W 003°06'612.8
2018-May-15 02:00N 49°58' W 002°58'713.3
2018-May-15 01:30N 50°00' W 002°48'713.9
2018-May-15 01:00N 50°02' W 002°38'714.2
2018-May-15 00:30N 50°04' W 002°27'714.2
2018-May-15 00:00N 50°06' W 002°16'713.6
2018-May-14 23:30N 50°08' W 002°06'612.8
2018-May-14 23:00N 50°09' W 001°56'611.8
2018-May-14 22:30N 50°11' W 001°47'510.7
2018-May-14 22:00N 50°12' W 001°39'5 9.9
2018-May-14 21:30N 50°13' W 001°32'5 9.0
2018-May-14 21:00N 50°15' W 001°25'4 8.3
2018-May-14 20:30N 50°16' W 001°19'4 8.0
2018-May-14 20:00N 50°17' W 001°13'4 7.5
2018-May-14 19:30N 50°18' W 001°07'4 7.5
2018-May-14 19:00N 50°19' W 001°02'4 8.0
2018-May-14 18:30N 50°20' W 000°56'5 9.2
2018-May-14 18:00N 50°22' W 000°49'5 9.8
2018-May-14 17:30N 50°23' W 000°41'510.3
2018-May-14 17:00N 50°25' W 000°34'611.3
2018-May-14 16:30N 50°26' W 000°25'611.9
2018-May-14 16:00N 50°28' W 000°16'612.4
2018-May-14 15:30N 50°29' W 000°07'612.7
2018-May-14 15:00N 50°31' E 000°03'612.9
2018-May-14 14:30N 50°33' E 000°13'612.8
2018-May-14 14:00N 50°35' E 000°22'612.5
2018-May-14 13:30N 50°36' E 000°32'612.2
2018-May-14 13:00N 50°39' E 000°40'611.9
2018-May-14 12:30N 50°43' E 000°48'511.0
2018-May-14 12:00N 50°45' E 000°55'510.3
2018-May-14 11:30N 50°48' E 001°02'5 9.7
2018-May-14 11:00N 50°51' E 001°09'13 9.2
2018-May-14 09:35N 50°60' E 001°24'110.1
2018-May-14 09:30N 51°00' E 001°25'510.9
2018-May-14 09:00N 51°04' E 001°31'611.7
2018-May-14 08:30N 51°08' E 001°38'612.6
2018-May-14 08:00N 51°13' E 001°45'713.6
2018-May-14 07:30N 51°19' E 001°50'713.4
2018-May-14 07:00N 51°25' E 001°55'713.3
2018-May-14 06:30N 51°30' E 002°01'612.9
2018-May-14 06:00N 51°35' E 002°08'612.6
2018-May-14 05:30N 51°39' E 002°16'612.1
2018-May-14 04:59N 51°44' E 002°23'611.6
2018-May-14 04:30N 51°48' E 002°29'1110.3
2018-May-14 03:25N 51°58' E 002°36'610.1
2018-May-14 02:50N 52°04' E 002°38'3 9.8
2018-May-14 02:30N 52°07' E 002°38'10 9.4
2018-May-14 01:24N 52°17' E 002°42'11 9.6
2018-May-14 00:13N 52°27' E 002°49'210.1
2018-May-14 00:00N 52°29' E 002°52'510.2
2018-May-13 23:30N 52°33' E 002°56'710.9
2018-May-13 22:51N 52°39' E 003°02'811.5
2018-May-13 22:07N 52°47' E 003°08'111.7
2018-May-13 22:00N 52°48' E 003°09'611.9
2018-May-13 21:29N 52°54' E 003°14'612.0
2018-May-13 21:00N 52°59' E 003°18'25311.1
2018-May-12 22:10N 56°36' E 007°03'211.5
2018-May-12 21:58N 56°38' E 007°06'611.6
2018-May-12 21:30N 56°42' E 007°11'611.4
2018-May-12 20:59N 56°47' E 007°17'611.3
2018-May-12 20:29N 56°52' E 007°23'511.3
2018-May-12 20:00N 56°56' E 007°30'5411.6
2018-May-12 15:21N 57°31' E 008°45'411.2
2018-May-12 15:00N 57°33' E 008°51'611.5
2018-May-12 14:30N 57°35' E 009°01'611.6
2018-May-12 14:00N 57°37' E 009°12'611.3
2018-May-12 13:30N 57°39' E 009°21'611.2
2018-May-12 13:00N 57°41' E 009°31'611.5
2018-May-12 12:30N 57°43' E 009°41'611.5
2018-May-12 12:00N 57°45' E 009°51'611.2
2018-May-12 11:30N 57°46' E 010°02'510.7
2018-May-12 11:00N 57°47' E 010°12'510.7
2018-May-12 10:30N 57°48' E 010°21'510.4
2018-May-12 10:00N 57°48' E 010°31'5 9.7
2018-May-12 09:30N 57°48' E 010°40'4 7.5
2018-May-12 09:00N 57°48' E 010°47'3 6.8
2018-May-12 08:30N 57°44' E 010°46'3 6.4
2018-May-12 08:00N 57°42' E 010°42'0 1.0
2018-May-12 07:30N 57°42' E 010°41'0 0.1
2018-May-12 07:00N 57°42' E 010°41'0 0.0
2018-May-12 06:30N 57°42' E 010°41'0 0.0
2018-May-12 06:00N 57°42' E 010°41'0 0.1
2018-May-12 05:30N 57°42' E 010°41'0 0.3
2018-May-12 05:00N 57°42' E 010°41'0 0.0
2018-May-12 04:30N 57°42' E 010°41'0 0.1
2018-May-12 04:00N 57°42' E 010°41'0 0.0
2018-May-12 03:30N 57°42' E 010°40'0 0.0
2018-May-12 03:00N 57°42' E 010°40'0 0.1
2018-May-12 02:30N 57°42' E 010°40'0 0.1
2018-May-12 02:00N 57°42' E 010°40'0 0.1
2018-May-12 01:30N 57°42' E 010°40'0 0.1
2018-May-12 01:00N 57°42' E 010°40'0 0.1
2018-May-12 00:30N 57°42' E 010°41'0 0.1
2018-May-12 00:00N 57°42' E 010°41'0 0.0
2018-May-11 23:30N 57°42' E 010°41'0 0.0
2018-May-11 23:00N 57°42' E 010°41'0 0.0
2018-May-11 22:30N 57°42' E 010°41'0 0.0
2018-May-11 22:00N 57°42' E 010°41'0 0.0
2018-May-11 21:30N 57°42' E 010°41'0 0.0
2018-May-11 21:00N 57°42' E 010°41'0 0.0
2018-May-11 20:30N 57°42' E 010°41'0 0.0
2018-May-11 20:00N 57°42' E 010°41'0 0.1
2018-May-11 19:30N 57°42' E 010°41'0 0.4
2018-May-11 19:00N 57°42' E 010°41'1 2.5
2018-May-11 18:30N 57°41' E 010°42'2 4.3
2018-May-11 18:00N 57°40' E 010°46'4 7.1
2018-May-11 17:30N 57°40' E 010°53'4 7.8
2018-May-11 17:00N 57°39' E 011°00'510.6
2018-May-11 16:31N 57°36' E 011°09'510.9
2018-May-11 16:00N 57°33' E 011°16'510.7
2018-May-11 15:31N 57°29' E 011°24'510.1
2018-May-11 15:00N 57°25' E 011°29'510.6
2018-May-11 14:30N 57°20' E 011°32'510.7
2018-May-11 14:00N 57°15' E 011°35'510.8
2018-May-11 13:30N 57°10' E 011°39'510.7
2018-May-11 13:00N 57°05' E 011°42'510.7
2018-May-11 12:30N 56°60' E 011°45'611.1
2018-May-11 12:00N 56°54' E 011°48'611.3
2018-May-11 11:30N 56°49' E 011°51'510.4
2018-May-11 11:00N 56°44' E 011°52'611.3
2018-May-11 10:30N 56°39' E 011°47'611.1
2018-May-11 10:00N 56°34' E 011°42'510.8
2018-May-11 09:30N 56°30' E 011°37'1211.0
2018-May-11 08:23N 56°19' E 011°26'511.1
2018-May-11 07:53N 56°14' E 011°21'510.8
2018-May-11 07:27N 56°10' E 011°16'45 9.1
2018-May-11 02:32N 55°27' E 010°57'0 9.6
2018-May-11 02:30N 55°27' E 010°57'9 9.6
2018-May-11 01:32N 55°18' E 011°03'0 9.5
2018-May-11 01:30N 55°18' E 011°03'5 9.3
2018-May-11 01:00N 55°13' E 011°06'5 9.7
2018-May-11 00:30N 55°10' E 011°01'510.1
2018-May-11 00:00N 55°05' E 010°59'510.1
2018-May-10 23:30N 54°60' E 010°59'5 9.8
2018-May-10 23:01N 54°56' E 010°53'510.2
2018-May-10 22:31N 54°51' E 010°50'510.0
2018-May-10 22:00N 54°46' E 010°48'4 8.6
2018-May-10 21:30N 54°42' E 010°46'5 9.1
2018-May-10 21:00N 54°39' E 010°52'510.8
2018-May-10 20:30N 54°36' E 010°60'611.5
2018-May-10 20:00N 54°36' E 011°10'611.7
2018-May-10 19:30N 54°34' E 011°19'611.7
2018-May-10 19:00N 54°31' E 011°28'611.9
2018-May-10 18:30N 54°29' E 011°38'611.5
2018-May-10 18:00N 54°26' E 011°46'510.9
2018-May-10 17:30N 54°26' E 011°56'4 8.4
2018-May-10 17:01N 54°26' E 012°03'5 9.2
2018-May-10 16:30N 54°27' E 012°11'5510.8
2018-May-10 11:22N 54°57' E 013°31'811.1
2018-May-10 10:40N 54°60' E 013°44'411.1
2018-May-10 10:20N 55°01' E 013°50'511.1
2018-May-10 09:53N 55°03' E 013°58'411.1
2018-May-10 09:31N 55°04' E 014°05'611.1
2018-May-10 09:01N 55°08' E 014°11'611.3
2018-May-10 08:30N 55°13' E 014°17'611.4
2018-May-10 08:00N 55°17' E 014°23'611.5
2018-May-10 07:29N 55°22' E 014°29'611.4
2018-May-10 06:59N 55°26' E 014°36'511.4
2018-May-10 06:31N 55°29' E 014°45'611.3
2018-May-10 06:01N 55°32' E 014°53'611.4
2018-May-10 05:31N 55°34' E 015°02'611.2
2018-May-10 05:00N 55°37' E 015°11'611.2
2018-May-10 04:30N 55°38' E 015°21'611.3
2018-May-10 04:00N 55°40' E 015°31'611.3
2018-May-10 03:31N 55°41' E 015°40'611.3
2018-May-10 03:00N 55°42' E 015°50'611.4
2018-May-10 02:30N 55°44' E 015°60'611.4
2018-May-10 02:00N 55°45' E 016°10'611.3
2018-May-10 01:30N 55°47' E 016°19'611.3
2018-May-10 01:00N 55°48' E 016°29'611.4
2018-May-10 00:30N 55°49' E 016°39'611.3
2018-May-10 00:01N 55°51' E 016°49'611.2
2018-May-09 23:30N 55°52' E 016°58'611.4
2018-May-09 23:00N 55°54' E 017°08'611.2
2018-May-09 22:31N 55°55' E 017°18'611.2
2018-May-09 22:00N 55°56' E 017°27'611.3
2018-May-09 21:30N 55°58' E 017°37'611.2
2018-May-09 21:00N 56°00' E 017°46'611.4
2018-May-09 20:30N 56°03' E 017°55'611.3
2018-May-09 20:00N 56°07' E 018°03'1011.3
2018-May-09 19:09N 56°12' E 018°17'1311.3
2018-May-09 17:59N 56°19' E 018°37'7611.4
2018-May-09 11:17N 57°25' E 019°48'311.6
2018-May-09 11:00N 57°28' E 019°51'611.4
2018-May-09 10:26N 57°33' E 019°56'611.3
2018-May-09 09:53N 57°39' E 020°00'511.3
2018-May-09 09:28N 57°44' E 020°04'1011.0
2018-May-09 08:33N 57°53' E 020°11'011.2
2018-May-09 08:30N 57°53' E 020°12'6211.2
2018-May-09 02:55N 58°47' E 021°11'510.9
2018-May-09 02:27N 58°52' E 021°16'511.0
2018-May-09 01:59N 58°56' E 021°21'1211.0
2018-May-09 00:53N 59°06' E 021°34'411.0
2018-May-09 00:30N 59°10' E 021°39'611.4
2018-May-08 23:59N 59°13' E 021°47'511.3
2018-May-08 23:31N 59°17' E 021°56'811.2
2018-May-08 22:46N 59°22' E 022°09'311.3
2018-May-08 22:30N 59°24' E 022°13'611.3
2018-May-08 22:00N 59°27' E 022°22'611.2
2018-May-08 21:30N 59°30' E 022°31'611.2
2018-May-08 21:00N 59°32' E 022°41'611.3
2018-May-08 20:28N 59°34' E 022°53'511.4
2018-May-08 20:00N 59°35' E 023°03'611.3
2018-May-08 19:30N 59°37' E 023°14'611.4
2018-May-08 19:00N 59°38' E 023°25'611.4
2018-May-08 18:30N 59°40' E 023°36'611.2
2018-May-08 18:01N 59°42' E 023°46'611.3
2018-May-08 17:30N 59°43' E 023°57'611.2
2018-May-08 17:00N 59°45' E 024°07'611.2
2018-May-08 16:30N 59°47' E 024°18'511.1
2018-May-08 16:00N 59°48' E 024°29'511.0
2018-May-08 15:30N 59°48' E 024°40'611.0
2018-May-08 15:00N 59°49' E 024°50'510.9
2018-May-08 14:31N 59°51' E 025°01'510.9
2018-May-08 14:00N 59°52' E 025°12'510.8
2018-May-08 13:30N 59°52' E 025°22'611.0
2018-May-08 13:00N 59°53' E 025°33'610.9
2018-May-08 12:29N 59°54' E 025°44'510.8
2018-May-08 12:00N 59°54' E 025°55'510.9
2018-May-08 11:30N 59°54' E 026°05'710.9
2018-May-08 10:54N 59°53' E 026°18'613.4
2018-May-08 10:25N 59°50' E 026°30'511.0
2018-May-08 09:56N 59°48' E 026°40'511.4
2018-May-08 09:30N 59°45' E 026°48'610.9
2018-May-08 08:55N 59°42' E 026°59'4 8.5
2018-May-08 08:24N 59°40' E 027°06'411.1
2018-May-08 08:00N 59°37' E 027°14'611.0
2018-May-08 07:30N 59°34' E 027°23'510.9
2018-May-08 07:00N 59°32' E 027°33'510.2
2018-May-08 06:30N 59°30' E 027°41'3 6.6
2018-May-08 06:00N 59°26' E 027°44'1 2.3
2018-May-08 05:27N 59°25' E 027°44'0 0.0
2018-May-08 04:58N 59°25' E 027°44'0 0.0
2018-May-08 04:29N 59°25' E 027°44'0 0.0
2018-May-08 03:55N 59°25' E 027°44'0 0.0
2018-May-08 03:21N 59°25' E 027°44'0 0.0
2018-May-08 02:51N 59°25' E 027°44'0 0.0
2018-May-08 02:22N 59°25' E 027°44'0 0.0
2018-May-08 01:58N 59°25' E 027°44'0 0.0
2018-May-08 01:22N 59°25' E 027°44'0 0.0
2018-May-08 00:07N 59°25' E 027°44'0 0.0
2018-May-07 23:51N 59°25' E 027°44'0 0.0
2018-May-07 23:28N 59°25' E 027°44'0 0.0
2018-May-07 22:48N 59°25' E 027°44'0 0.0
2018-May-07 22:28N 59°25' E 027°44'0 0.0
2018-May-07 21:13N 59°25' E 027°44'0 0.0
2018-May-07 20:58N 59°25' E 027°44'0 0.0
2018-May-07 20:28N 59°25' E 027°44'0 0.0
2018-May-07 19:58N 59°25' E 027°44'0 0.0
2018-May-07 19:29N 59°25' E 027°44'0 0.0
2018-May-07 18:58N 59°25' E 027°44'0 0.0
2018-May-07 18:28N 59°25' E 027°44'0 0.0
2018-May-07 17:57N 59°25' E 027°44'0 0.0
2018-May-07 17:27N 59°25' E 027°44'0 0.0
2018-May-07 16:02N 59°25' E 027°44'0 0.0
2018-May-07 14:49N 59°25' E 027°44'0 0.0
2018-May-07 14:22N 59°25' E 027°44'0 0.0
2018-May-07 14:00N 59°25' E 027°44'0 0.0
2018-May-07 13:29N 59°25' E 027°44'0 0.0
2018-May-07 11:52N 59°25' E 027°44'0 0.0
2018-May-07 11:11N 59°25' E 027°44'0 0.0
2018-May-07 10:56N 59°25' E 027°44'0 0.0
2018-May-07 10:26N 59°25' E 027°44'0 0.0
2018-May-07 09:34N 59°25' E 027°44'0 0.0
2018-May-07 09:23N 59°25' E 027°44'0 0.0
2018-May-07 08:22N 59°25' E 027°44'0 0.0
2018-May-07 07:58N 59°25' E 027°44'0 0.0
2018-May-07 07:28N 59°25' E 027°44'0 0.0
2018-May-07 06:59N 59°25' E 027°44'0 0.0
2018-May-07 06:16N 59°25' E 027°44'0 0.0
2018-May-07 05:51N 59°25' E 027°44'0 0.0
2018-May-07 05:31N 59°25' E 027°44'0 0.0
2018-May-06 23:21N 59°25' E 027°44'0 0.0
2018-May-06 22:58N 59°25' E 027°44'0 0.0
2018-May-06 22:22N 59°25' E 027°44'0 0.0
2018-May-06 21:52N 59°25' E 027°44'0 0.0
2018-May-06 21:20N 59°25' E 027°44'0 0.0
2018-May-06 20:49N 59°25' E 027°44'0 0.0
2018-May-06 20:22N 59°25' E 027°44'0 0.0
2018-May-06 19:43N 59°25' E 027°44'0 0.0
2018-May-06 19:29N 59°25' E 027°44'0 0.0
2018-May-06 18:58N 59°25' E 027°44'0 0.0
2018-May-06 18:22N 59°25' E 027°44'0 0.0
2018-May-06 17:33N 59°25' E 027°44'0 0.0
2018-May-06 15:36N 59°25' E 027°44'0 0.0
2018-May-06 15:18N 59°25' E 027°44'0 0.0
2018-May-06 14:14N 59°25' E 027°44'0 0.0
2018-May-06 13:50N 59°25' E 027°44'0 0.0
2018-May-06 12:52N 59°25' E 027°44'0 0.0
2018-May-06 12:16N 59°25' E 027°44'0 0.0
2018-May-06 11:56N 59°25' E 027°44'0 0.0
2018-May-06 11:29N 59°25' E 027°44'0 0.0
2018-May-06 10:52N 59°25' E 027°44'0 0.0
2018-May-06 10:27N 59°25' E 027°44'0 0.0
2018-May-06 09:58N 59°25' E 027°44'0 0.0
2018-May-06 09:19N 59°25' E 027°44'0 0.0
2018-May-06 09:00N 59°25' E 027°44'0 0.0
2018-May-06 08:24N 59°25' E 027°44'0 0.0
2018-May-06 07:57N 59°25' E 027°44'0 0.0
2018-May-06 07:22N 59°25' E 027°44'0 0.0
2018-May-06 06:59N 59°25' E 027°44'0 0.0
2018-May-06 06:29N 59°25' E 027°44'0 0.0
2018-May-06 05:52N 59°25' E 027°44'0 0.0
2018-May-06 05:30N 59°25' E 027°44'0 0.0
2018-May-06 05:00N 59°25' E 027°44'0 0.0
2018-May-06 04:28N 59°25' E 027°44'0 0.0
2018-May-06 03:54N 59°25' E 027°44'0 0.0
2018-May-06 03:28N 59°25' E 027°44'0 0.0
2018-May-06 02:58N 59°25' E 027°44'0 0.0
2018-May-06 02:28N 59°25' E 027°44'0 0.0
2018-May-06 01:40N 59°25' E 027°44'0 0.0
2018-May-06 01:25N 59°25' E 027°44'0 0.0
2018-May-06 00:58N 59°25' E 027°44'0 0.0
2018-May-06 00:28N 59°25' E 027°44'0 0.0
2018-May-05 23:58N 59°25' E 027°44'0 0.0
2018-May-05 23:28N 59°25' E 027°44'0 0.0
2018-May-05 22:58N 59°25' E 027°44'0 0.0
2018-May-05 22:28N 59°25' E 027°44'0 0.0
2018-May-05 21:58N 59°25' E 027°44'0 0.0
2018-May-05 21:08N 59°25' E 027°44'0 0.0
2018-May-05 20:46N 59°25' E 027°44'0 0.0
2018-May-05 20:29N 59°25' E 027°44'0 0.0
2018-May-05 19:56N 59°25' E 027°44'0 0.0
2018-May-05 18:28N 59°25' E 027°44'0 0.0
2018-May-05 17:58N 59°25' E 027°44'0 0.0
2018-May-05 16:40N 59°25' E 027°44'0 0.0
2018-May-05 14:21N 59°25' E 027°44'0 0.0
2018-May-05 12:48N 59°25' E 027°44'0 0.0
2018-May-05 12:22N 59°25' E 027°44'0 0.0
2018-May-05 11:57N 59°25' E 027°44'  

Dump ship's entire track history